Time;durP1;ratioP1;P1;durP2;ratioP2;P2;SDS_P1;SDS_P2;PMS_P1;PMS_P2;Temp;Humidity;BMP_temperature;BMP_pressure;BME280_temperature;BME280_humidity;BME280_pressure;Samples;Min_cycle;Max_cycle;Signal;HPM_P1;HPM_P2
2021/08/11 00:02:01;;;;;;;4.50;4.10;;;13.40;99.90;;;;;;5094620;28;21601;-67
2021/08/11 00:04:27;;;;;;;4.85;4.38;;;13.40;99.90;;;;;;5097007;28;20035;-67
2021/08/11 00:06:52;;;;;;;5.20;4.32;;;13.30;99.90;;;;;;5094838;28;20043;-67
2021/08/11 00:09:18;;;;;;;6.07;3.85;;;13.40;99.90;;;;;;5094989;28;20043;-67
2021/08/11 00:11:44;;;;;;;7.15;4.07;;;13.30;99.90;;;;;;5096788;27;20055;-67
2021/08/11 00:14:10;;;;;;;5.25;3.95;;;13.30;99.90;;;;;;5097523;28;20049;-67
2021/08/11 00:16:35;;;;;;;6.72;4.95;;;13.20;99.90;;;;;;5096125;28;20578;-67
2021/08/11 00:19:01;;;;;;;23.10;7.18;;;13.20;99.90;;;;;;5093745;28;20063;-67
2021/08/11 00:21:27;;;;;;;8.18;4.05;;;13.10;99.90;;;;;;5097174;28;20064;-67
2021/08/11 00:23:53;;;;;;;7.97;5.22;;;13.60;99.90;;;;;;5095265;28;20409;-67
2021/08/11 00:26:19;;;;;;;6.35;5.75;;;13.00;99.90;;;;;;5099880;28;20044;-67
2021/08/11 00:28:44;;;;;;;7.53;5.70;;;13.00;99.90;;;;;;5094186;28;20035;-67
2021/08/11 00:31:10;;;;;;;8.85;6.70;;;13.00;99.90;;;;;;5093779;28;20405;-67
2021/08/11 00:33:36;;;;;;;6.75;6.05;;;13.00;99.90;;;;;;5093823;28;20636;-67
2021/08/11 00:36:01;;;;;;;11.63;6.70;;;13.10;99.90;;;;;;5094848;28;20032;-67
2021/08/11 00:38:27;;;;;;;7.65;6.63;;;13.10;99.90;;;;;;5093164;28;20035;-67
2021/08/11 00:40:53;;;;;;;8.10;7.15;;;13.00;99.90;;;;;;5093322;28;20127;-67
2021/08/11 00:43:19;;;;;;;9.52;7.65;;;13.00;99.90;;;;;;5094604;28;20089;-67
2021/08/11 00:45:44;;;;;;;8.38;7.63;;;13.00;99.90;;;;;;5096099;28;20088;-67
2021/08/11 00:48:12;;;;;;;10.88;8.15;;;13.00;99.90;;;;;;5099143;28;20039;-67
2021/08/11 00:50:39;;;;;;;10.20;7.80;;;13.00;99.90;;;;;;5095768;28;20035;-67
2021/08/11 00:53:07;;;;;;;10.32;7.55;;;13.00;99.90;;;;;;5094179;28;20106;-67
2021/08/11 00:55:35;;;;;;;8.05;5.50;;;13.00;99.90;;;;;;5094369;28;20039;-67
2021/08/11 00:58:04;;;;;;;8.27;6.85;;;13.00;99.90;;;;;;5095892;28;20062;-67
2021/08/11 01:00:31;;;;;;;9.32;7.55;;;12.90;99.90;;;;;;5093305;28;20036;-67
2021/08/11 01:02:57;;;;;;;7.68;6.22;;;12.90;99.90;;;;;;5097470;28;20846;-67
2021/08/11 01:05:25;;;;;;;5.75;3.53;;;12.80;99.90;;;;;;5094577;28;20043;-67
2021/08/11 01:07:51;;;;;;;8.32;4.28;;;12.80;99.90;;;;;;5094928;28;20040;-67
2021/08/11 01:10:17;;;;;;;4.65;4.03;;;12.70;99.90;;;;;;5094724;28;20129;-67
2021/08/11 01:12:43;;;;;;;15.25;5.10;;;12.60;99.90;;;;;;5097185;28;20035;-67
2021/08/11 01:15:10;;;;;;;5.40;4.45;;;12.60;99.90;;;;;;5089138;28;20074;-67
2021/08/11 01:17:35;;;;;;;7.60;5.93;;;12.60;99.90;;;;;;5094548;28;20036;-67
2021/08/11 01:20:04;;;;;;;8.85;6.40;;;12.60;99.90;;;;;;5096919;28;20046;-67
2021/08/11 01:22:42;;;;;;;8.68;6.03;;;12.60;99.90;;;;;;5092441;28;20043;-67
2021/08/11 01:25:22;;;;;;;5.93;4.68;;;12.60;99.90;;;;;;5096440;28;20039;-67
2021/08/11 01:28:25;;;;;;;7.32;3.95;;;12.60;99.90;;;;;;5091592;28;20125;-67
2021/08/11 01:30:57;;;;;;;4.65;4.25;;;12.50;99.90;;;;;;5094205;28;20116;-67
2021/08/11 01:33:48;;;;;;;4.10;3.70;;;12.50;99.90;;;;;;5094516;28;20036;-67
2021/08/11 01:36:24;;;;;;;7.75;3.70;;;12.50;99.90;;;;;;5095312;28;20489;-67
2021/08/11 01:38:58;;;;;;;8.55;5.05;;;12.50;99.90;;;;;;5094435;28;20120;-67
2021/08/11 01:41:43;;;;;;;4.85;3.85;;;12.40;99.90;;;;;;5095584;28;20398;-67
2021/08/11 01:44:11;;;;;;;10.68;7.63;;;12.50;99.90;;;;;;5095117;28;20126;-67
2021/08/11 01:46:41;;;;;;;11.65;10.25;;;12.50;99.90;;;;;;5094387;28;20473;-67
2021/08/11 01:49:09;;;;;;;14.90;12.10;;;12.60;99.90;;;;;;5091588;28;20045;-67
2021/08/11 01:51:40;;;;;;;10.65;8.27;;;12.60;99.90;;;;;;5092615;28;20055;-67
2021/08/11 01:54:08;;;;;;;14.52;9.77;;;12.60;99.90;;;;;;5095430;28;20085;-67
2021/08/11 01:56:34;;;;;;;15.45;10.57;;;12.70;99.90;;;;;;5093581;28;20032;-67
2021/08/11 01:59:02;;;;;;;15.02;11.25;;;12.70;99.90;;;;;;5093647;28;20074;-67
2021/08/11 02:01:28;;;;;;;13.52;11.70;;;12.70;99.90;;;;;;5091660;28;20076;-67
2021/08/11 02:03:54;;;;;;;15.25;11.18;;;12.70;99.90;;;;;;5096087;28;20035;-67
2021/08/11 02:06:20;;;;;;;12.90;11.13;;;12.80;99.90;;;;;;5093530;28;20475;-67
2021/08/11 02:08:46;;;;;;;26.30;10.73;;;12.80;99.90;;;;;;5094500;28;20036;-67
2021/08/11 02:11:13;;;;;;;13.15;11.52;;;12.80;99.90;;;;;;5096562;28;20040;-67
2021/08/11 02:13:40;;;;;;;14.27;11.55;;;12.80;99.90;;;;;;5096124;28;20034;-67
2021/08/11 02:16:06;;;;;;;12.88;11.57;;;12.80;99.90;;;;;;5095108;28;20399;-67
2021/08/11 02:18:35;;;;;;;11.52;9.18;;;12.80;99.90;;;;;;5092912;28;20054;-67
2021/08/11 02:21:00;;;;;;;15.55;9.68;;;12.80;99.90;;;;;;5092620;28;20063;-67
2021/08/11 02:23:26;;;;;;;11.50;8.95;;;12.80;99.90;;;;;;5094176;28;20535;-67
2021/08/11 02:26:02;;;;;;;12.25;9.10;;;12.70;99.90;;;;;;5097941;28;20035;-67
2021/08/11 02:28:57;;;;;;;12.52;8.40;;;12.70;99.90;;;;;;5095541;28;20125;-67
2021/08/11 02:31:43;;;;;;;14.82;10.45;;;12.60;99.90;;;;;;5096703;28;20405;-67
2021/08/11 02:34:37;;;;;;;12.05;10.85;;;12.60;99.90;;;;;;5101859;28;20482;-67
2021/08/11 02:37:12;;;;;;;14.75;10.45;;;12.70;99.90;;;;;;5092466;28;21688;-67
2021/08/11 02:39:53;;;;;;;12.40;10.23;;;12.70;99.90;;;;;;5102443;28;20043;-67
2021/08/11 02:42:30;;;;;;;10.98;8.27;;;12.60;99.90;;;;;;5101047;28;20498;-67
2021/08/11 02:45:01;;;;;;;14.00;8.30;;;12.60;99.90;;;;;;5104922;28;20040;-67
2021/08/11 02:47:28;;;;;;;10.75;8.55;;;12.60;99.90;;;;;;5106323;28;20032;-67
2021/08/11 02:49:55;;;;;;;12.20;9.07;;;12.60;99.90;;;;;;5099903;28;20040;-67
2021/08/11 02:52:22;;;;;;;11.27;7.40;;;12.60;99.90;;;;;;5098764;28;20188;-67
2021/08/11 02:54:49;;;;;;;8.70;7.38;;;12.60;99.90;;;;;;5106169;28;20035;-67
2021/08/11 02:57:16;;;;;;;10.27;6.88;;;12.50;99.90;;;;;;5105676;28;20050;-67
2021/08/11 02:59:42;;;;;;;14.90;8.48;;;12.50;99.90;;;;;;5105747;28;20486;-67
2021/08/11 03:02:08;;;;;;;10.85;8.43;;;12.50;99.90;;;;;;5100426;28;20042;-67
2021/08/11 03:04:33;;;;;;;9.90;7.68;;;12.50;99.90;;;;;;5104910;27;20110;-67
2021/08/11 03:06:59;;;;;;;8.25;7.32;;;12.50;99.90;;;;;;5104286;27;20043;-67
2021/08/11 03:09:25;;;;;;;10.10;7.55;;;12.50;99.90;;;;;;5103032;28;20111;-67
2021/08/11 03:11:51;;;;;;;10.88;8.75;;;12.60;99.90;;;;;;5109369;28;20093;-67
2021/08/11 03:14:17;;;;;;;8.68;7.63;;;12.50;99.90;;;;;;5102757;28;20039;-67
2021/08/11 03:16:44;;;;;;;16.98;12.63;;;12.50;99.90;;;;;;5103715;28;20044;-67
2021/08/11 03:19:09;;;;;;;14.05;10.00;;;12.50;99.90;;;;;;5105345;28;20032;-67
2021/08/11 03:21:36;;;;;;;12.70;11.07;;;12.60;99.90;;;;;;5104480;28;20155;-67
2021/08/11 03:24:02;;;;;;;11.00;9.07;;;12.60;99.90;;;;;;5101335;28;20050;-67
2021/08/11 03:26:28;;;;;;;16.58;11.10;;;12.60;99.90;;;;;;5108798;27;20579;-67
2021/08/11 03:28:59;;;;;;;16.42;12.07;;;12.60;99.90;;;;;;5110034;27;20406;-67
2021/08/11 03:31:26;;;;;;;17.63;12.95;;;12.70;99.90;;;;;;5102112;28;20040;-67
2021/08/11 03:33:52;;;;;;;15.10;11.85;;;12.70;99.90;;;;;;5100896;28;20032;-67
2021/08/11 03:36:18;;;;;;;15.52;9.90;;;12.70;99.90;;;;;;5103057;28;20623;-67
2021/08/11 03:38:44;;;;;;;12.75;10.10;;;12.70;99.90;;;;;;5101275;28;20042;-67
2021/08/11 03:41:09;;;;;;;20.35;14.43;;;12.80;99.90;;;;;;5108176;27;20043;-67
2021/08/11 03:43:35;;;;;;;23.77;15.88;;;12.80;99.90;;;;;;5106825;28;20032;-67
2021/08/11 03:46:01;;;;;;;20.20;14.70;;;12.90;99.90;;;;;;5102028;28;20477;-67
2021/08/11 03:48:26;;;;;;;20.83;14.77;;;12.90;99.90;;;;;;5101148;28;20032;-67
2021/08/11 03:50:52;;;;;;;19.50;14.93;;;12.90;99.90;;;;;;5104249;28;20043;-67
2021/08/11 03:53:18;;;;;;;17.50;14.20;;;13.00;99.90;;;;;;5105170;28;20527;-67
2021/08/11 03:55:43;;;;;;;20.48;14.43;;;13.10;99.90;;;;;;5105295;28;20039;-67
2021/08/11 03:58:09;;;;;;;19.75;14.48;;;13.00;99.90;;;;;;5106904;28;20032;-67
2021/08/11 04:00:35;;;;;;;20.85;14.68;;;13.10;99.90;;;;;;5104811;28;20047;-67
2021/08/11 04:03:01;;;;;;;17.58;15.30;;;13.10;99.90;;;;;;5105007;28;20085;-67
2021/08/11 04:05:26;;;;;;;16.55;14.00;;;13.20;99.90;;;;;;5102124;28;20036;-67
2021/08/11 04:07:52;;;;;;;17.50;13.60;;;13.20;99.90;;;;;;5103413;28;20772;-67
2021/08/11 04:10:18;;;;;;;18.83;15.55;;;13.20;99.90;;;;;;5105190;28;20043;-67
2021/08/11 04:12:43;;;;;;;18.48;13.82;;;13.20;99.90;;;;;;5105515;28;20157;-67
2021/08/11 04:15:10;;;;;;;19.50;14.98;;;13.30;99.90;;;;;;5106372;28;20046;-67
2021/08/11 04:17:36;;;;;;;14.60;13.02;;;13.20;99.90;;;;;;5101584;28;20044;-67
2021/08/11 04:20:03;;;;;;;17.40;13.50;;;13.30;99.90;;;;;;5099361;28;20058;-67
2021/08/11 04:22:28;;;;;;;14.50;12.77;;;13.20;99.90;;;;;;5103735;28;20051;-67
2021/08/11 04:24:54;;;;;;;18.65;12.98;;;13.30;99.90;;;;;;5108032;28;20043;-67
2021/08/11 04:27:20;;;;;;;15.48;12.85;;;13.30;99.90;;;;;;5110056;28;20042;-67
2021/08/11 04:29:45;;;;;;;19.13;13.70;;;13.30;99.90;;;;;;5101418;28;20032;-67
2021/08/11 04:32:11;;;;;;;17.48;12.90;;;13.30;99.90;;;;;;5095305;28;20127;-67
2021/08/11 04:34:37;;;;;;;13.65;12.25;;;13.30;99.90;;;;;;5102576;28;20494;-67
2021/08/11 04:37:06;;;;;;;15.43;12.85;;;13.30;99.90;;;;;;5100509;28;20482;-67
2021/08/11 04:39:32;;;;;;;18.02;12.48;;;13.40;99.90;;;;;;5106976;27;20438;-67
2021/08/11 04:41:58;;;;;;;18.80;12.18;;;13.40;99.90;;;;;;5107022;28;20061;-67
2021/08/11 04:44:24;;;;;;;17.50;13.02;;;13.40;99.90;;;;;;5098936;28;20456;-67
2021/08/11 04:46:49;;;;;;;13.70;12.10;;;13.40;99.90;;;;;;5102278;28;20081;-67
2021/08/11 04:49:15;;;;;;;14.65;12.63;;;13.50;99.90;;;;;;5100149;28;20039;-67
2021/08/11 04:51:41;;;;;;;13.30;11.95;;;13.50;99.90;;;;;;5100830;28;20104;-67
2021/08/11 04:54:06;;;;;;;18.13;13.23;;;13.50;99.90;;;;;;5101339;28;20044;-67
2021/08/11 04:56:32;;;;;;;18.90;13.68;;;13.50;99.90;;;;;;5102958;28;20059;-67
2021/08/11 04:58:58;;;;;;;16.30;12.70;;;13.50;99.90;;;;;;5104625;28;20051;-67
2021/08/11 05:01:23;;;;;;;21.50;13.50;;;13.60;99.90;;;;;;5105017;28;20047;-67
2021/08/11 05:03:49;;;;;;;13.85;10.75;;;13.60;99.90;;;;;;5099792;28;20461;-67
2021/08/11 05:06:17;;;;;;;16.65;12.18;;;13.60;99.90;;;;;;5099926;28;20479;-67
2021/08/11 05:08:42;;;;;;;17.10;12.18;;;13.70;99.90;;;;;;5101737;28;20040;-67
2021/08/11 05:11:08;;;;;;;15.57;12.23;;;13.70;99.90;;;;;;5103128;28;20047;-67
2021/08/11 05:13:34;;;;;;;16.35;11.05;;;13.70;99.90;;;;;;5094404;28;20063;-67
2021/08/11 05:15:59;;;;;;;14.38;11.70;;;13.70;99.90;;;;;;5097826;27;20044;-67
2021/08/11 05:18:25;;;;;;;14.85;12.25;;;13.80;99.90;;;;;;5095179;28;20040;-67
2021/08/11 05:20:54;;;;;;;13.80;12.23;;;13.80;99.90;;;;;;5095221;28;20436;-67
2021/08/11 05:23:20;;;;;;;13.85;11.40;;;14.10;99.90;;;;;;5096696;28;20599;-67
2021/08/11 05:25:46;;;;;;;13.52;9.95;;;14.50;99.90;;;;;;5092107;28;20073;-67
2021/08/11 05:28:12;;;;;;;11.77;9.52;;;15.20;99.90;;;;;;5093544;28;20035;-67
2021/08/11 05:30:42;;;;;;;11.10;8.20;;;16.20;99.90;;;;;;5095573;28;20069;-67
2021/08/11 05:33:07;;;;;;;11.65;8.40;;;16.80;99.90;;;;;;5092302;28;20032;-67
2021/08/11 05:35:33;;;;;;;10.10;7.80;;;17.50;99.90;;;;;;5124982;27;20051;-67
2021/08/11 05:38:00;;;;;;;10.98;8.30;;;18.50;99.90;;;;;;5095763;28;20472;-67
2021/08/11 05:40:26;;;;;;;10.98;9.30;;;19.40;99.90;;;;;;5096424;28;20047;-68
2021/08/11 05:42:52;;;;;;;9.43;7.75;;;19.20;99.90;;;;;;5094891;28;20032;-68
2021/08/11 05:45:18;;;;;;;9.27;7.40;;;19.50;99.90;;;;;;5094920;28;20040;-68
2021/08/11 05:47:43;;;;;;;8.27;6.85;;;20.50;99.90;;;;;;5093258;28;20109;-68
2021/08/11 05:50:09;;;;;;;7.88;6.50;;;21.70;99.90;;;;;;5093819;28;20036;-68
2021/08/11 05:52:35;;;;;;;8.70;7.10;;;22.80;99.90;;;;;;5095841;28;20112;-68
2021/08/11 05:55:01;;;;;;;11.43;7.55;;;23.80;99.90;;;;;;5094572;28;20185;-68
2021/08/11 05:57:27;;;;;;;10.35;7.15;;;24.60;97.80;;;;;;5093629;28;20040;-68
2021/08/11 05:59:53;;;;;;;8.07;6.82;;;25.40;94.20;;;;;;5095583;28;20039;-68
2021/08/11 06:02:19;;;;;;;11.95;7.20;;;26.10;91.60;;;;;;5093421;28;20651;-68
2021/08/11 06:04:44;;;;;;;12.93;7.20;;;26.60;86.30;;;;;;5095045;28;20471;-69
2021/08/11 06:07:10;;;;;;;7.07;6.38;;;27.20;80.20;;;;;;5098628;28;20032;-69
2021/08/11 06:09:36;;;;;;;12.00;7.05;;;27.80;75.30;;;;;;5094440;28;20055;-69
2021/08/11 06:12:07;;;;;;;7.35;6.10;;;28.20;71.70;;;;;;5091776;28;20040;-69
2021/08/11 06:14:32;;;;;;;9.63;6.35;;;28.50;69.70;;;;;;5093813;28;20040;-69
2021/08/11 06:16:58;;;;;;;9.15;6.80;;;28.80;67.00;;;;;;5094825;28;20099;-69
2021/08/11 06:19:24;;;;;;;8.43;6.35;;;29.20;64.70;;;;;;5095125;28;20147;-69
2021/08/11 06:21:50;;;;;;;9.80;6.93;;;29.70;63.00;;;;;;5094918;28;20027;-69
2021/08/11 06:24:16;;;;;;;8.48;6.57;;;29.80;61.80;;;;;;5096279;28;20110;-69
2021/08/11 06:26:41;;;;;;;8.25;7.25;;;30.00;60.40;;;;;;5095140;28;20434;-69
2021/08/11 06:29:08;;;;;;;9.35;7.00;;;29.60;60.40;;;;;;5093939;28;20146;-69
2021/08/11 06:31:33;;;;;;;8.13;6.25;;;29.00;62.20;;;;;;5097035;28;20036;-69
2021/08/11 06:33:59;;;;;;;7.20;6.32;;;28.30;63.40;;;;;;5092768;28;20382;-69
2021/08/11 06:36:25;;;;;;;7.15;6.40;;;27.50;66.70;;;;;;5096806;28;20398;-69
2021/08/11 06:38:52;;;;;;;8.05;6.68;;;26.70;70.70;;;;;;5094894;28;20040;-69
2021/08/11 06:41:18;;;;;;;8.93;6.45;;;25.80;74.60;;;;;;5099934;28;20112;-69
2021/08/11 06:43:45;;;;;;;8.00;7.20;;;25.10;78.90;;;;;;5096699;27;20071;-68
2021/08/11 06:46:14;;;;;;;8.38;7.50;;;24.50;85.30;;;;;;5098950;28;20395;-68
2021/08/11 06:48:40;;;;;;;10.32;7.18;;;24.10;90.70;;;;;;5096924;27;20689;-68
2021/08/11 06:51:07;;;;;;;8.00;6.57;;;23.70;92.60;;;;;;5096060;28;20126;-69
2021/08/11 06:53:33;;;;;;;10.63;7.72;;;23.50;94.00;;;;;;5097581;28;20036;-69
2021/08/11 06:55:59;;;;;;;9.82;7.25;;;23.40;94.60;;;;;;5097555;27;20035;-69
2021/08/11 06:58:25;;;;;;;10.52;7.10;;;23.00;95.30;;;;;;5095682;27;20154;-69
2021/08/11 07:00:52;;;;;;;10.40;7.45;;;22.80;96.90;;;;;;5096735;28;20110;-69
2021/08/11 07:03:19;;;;;;;10.07;7.10;;;22.70;97.60;;;;;;5096576;28;20040;-69
2021/08/11 07:05:45;;;;;;;11.65;6.78;;;22.70;98.50;;;;;;5096341;28;20042;-68
2021/08/11 07:08:12;;;;;;;13.15;7.22;;;22.70;98.80;;;;;;5100168;28;22221;-68
2021/08/11 07:10:37;;;;;;;8.18;6.53;;;22.60;98.90;;;;;;5095528;27;20551;-68
2021/08/11 07:13:03;;;;;;;8.23;6.18;;;22.50;99.70;;;;;;5096654;27;20071;-68
2021/08/11 07:15:29;;;;;;;8.10;6.47;;;22.40;99.90;;;;;;5095853;28;20061;-68
2021/08/11 07:17:56;;;;;;;6.85;6.15;;;22.50;99.80;;;;;;5098561;28;20667;-68
2021/08/11 07:20:24;;;;;;;8.30;5.95;;;22.50;99.90;;;;;;5095085;28;20047;-68
2021/08/11 07:22:50;;;;;;;10.30;6.68;;;22.30;99.90;;;;;;5095146;28;20035;-68
2021/08/11 07:25:16;;;;;;;10.07;6.55;;;22.10;99.90;;;;;;5094210;28;20071;-68
2021/08/11 07:27:42;;;;;;;10.35;6.20;;;22.10;99.90;;;;;;5094968;27;20043;-68
2021/08/11 07:30:08;;;;;;;8.45;5.88;;;22.20;99.90;;;;;;5096037;27;20114;-68
2021/08/11 07:32:34;;;;;;;9.88;6.20;;;22.30;99.90;;;;;;5095731;27;20584;-68
2021/08/11 07:35:00;;;;;;;7.93;5.85;;;22.10;99.90;;;;;;5094583;28;20043;-67
2021/08/11 07:37:26;;;;;;;10.23;6.18;;;22.00;99.90;;;;;;5095786;27;20035;-68
2021/08/11 07:39:54;;;;;;;8.10;5.90;;;22.00;99.90;;;;;;5098752;28;20112;-67
2021/08/11 07:42:20;;;;;;;8.43;5.75;;;22.00;99.90;;;;;;5098932;28;20040;-68
2021/08/11 07:44:46;;;;;;;6.80;5.68;;;22.10;99.90;;;;;;5096477;28;20051;-67
2021/08/11 07:47:11;;;;;;;8.27;5.50;;;22.20;99.90;;;;;;5097192;27;20394;-67
2021/08/11 07:49:37;;;;;;;8.93;5.57;;;22.20;99.90;;;;;;5096141;28;20490;-68
2021/08/11 07:52:03;;;;;;;8.18;6.38;;;22.20;99.90;;;;;;5094396;28;20036;-67
2021/08/11 07:54:29;;;;;;;8.98;5.57;;;22.30;99.90;;;;;;5093289;27;20092;-68
2021/08/11 07:56:55;;;;;;;7.32;5.13;;;22.30;99.90;;;;;;5097075;28;20031;-67
2021/08/11 07:59:20;;;;;;;10.57;5.45;;;22.20;99.90;;;;;;5095198;27;20478;-67
2021/08/11 08:01:46;;;;;;;8.90;6.35;;;22.10;99.90;;;;;;5094978;28;20789;-67
2021/08/11 08:04:12;;;;;;;7.47;5.65;;;22.00;99.90;;;;;;5098935;28;20044;-67
2021/08/11 08:06:37;;;;;;;10.32;5.07;;;21.90;99.90;;;;;;5125357;27;20078;-67
2021/08/11 08:09:03;;;;;;;7.35;5.70;;;21.90;99.90;;;;;;5095763;27;20036;-67
2021/08/11 08:11:29;;;;;;;7.15;5.60;;;21.80;99.90;;;;;;5094473;28;20043;-67
2021/08/11 08:13:54;;;;;;;8.30;4.95;;;21.90;99.90;;;;;;5094657;28;20032;-67
2021/08/11 08:16:20;;;;;;;7.00;4.95;;;21.90;99.90;;;;;;5097151;27;20048;-67
2021/08/11 08:18:46;;;;;;;10.27;5.90;;;22.00;99.90;;;;;;5097420;27;23493;-67
2021/08/11 08:21:12;;;;;;;8.85;5.40;;;22.00;99.90;;;;;;5098168;28;20039;-67
2021/08/11 08:23:39;;;;;;;7.22;5.47;;;22.00;99.90;;;;;;5095877;28;20102;-68
2021/08/11 08:26:05;;;;;;;9.18;5.22;;;22.00;99.90;;;;;;5097016;27;20038;-68
2021/08/11 08:28:30;;;;;;;8.82;5.47;;;22.00;99.90;;;;;;5097033;28;20571;-67
2021/08/11 08:30:56;;;;;;;6.18;4.95;;;21.90;99.90;;;;;;5094551;27;20047;-67
2021/08/11 08:33:22;;;;;;;8.30;5.50;;;21.90;99.90;;;;;;5095094;27;20257;-67
2021/08/11 08:35:47;;;;;;;7.78;5.70;;;21.80;99.90;;;;;;5095409;28;20031;-68
2021/08/11 08:38:13;;;;;;;9.05;5.97;;;21.90;99.90;;;;;;5097626;28;20078;-68
2021/08/11 08:40:41;;;;;;;10.90;6.72;;;21.90;99.90;;;;;;5093777;28;20063;-67
2021/08/11 08:43:07;;;;;;;7.63;5.78;;;21.80;99.90;;;;;;5095677;28;20517;-68
2021/08/11 08:45:33;;;;;;;6.53;4.53;;;21.80;99.90;;;;;;5096315;28;20036;-68
2021/08/11 08:48:03;;;;;;;6.90;4.85;;;21.80;99.90;;;;;;5095085;28;20092;-68
2021/08/11 08:50:30;;;;;;;7.53;4.97;;;21.80;99.90;;;;;;5094819;28;20468;-68
2021/08/11 08:52:56;;;;;;;6.53;5.55;;;21.70;99.90;;;;;;5094938;28;20035;-67
2021/08/11 08:55:22;;;;;;;6.40;4.93;;;21.80;99.90;;;;;;5095327;27;20032;-67
2021/08/11 08:57:48;;;;;;;6.93;5.30;;;21.80;99.90;;;;;;5096679;28;20113;-68
2021/08/11 09:00:14;;;;;;;11.35;6.00;;;21.80;99.90;;;;;;5092379;28;20490;-68
2021/08/11 09:02:41;;;;;;;10.15;5.28;;;21.80;99.90;;;;;;5092878;28;20032;-67
2021/08/11 09:05:11;;;;;;;7.55;5.78;;;21.80;99.90;;;;;;5094002;27;20044;-67
2021/08/11 09:07:48;;;;;;;6.53;4.68;;;21.70;99.90;;;;;;5095640;28;20046;-67
2021/08/11 09:10:22;;;;;;;9.05;4.80;;;21.70;99.90;;;;;;5094417;28;20040;-67
2021/08/11 09:12:49;;;;;;;8.15;5.85;;;21.70;99.90;;;;;;5094224;28;20066;-67
2021/08/11 09:15:35;;;;;;;7.28;5.22;;;21.70;99.90;;;;;;5094153;28;20542;-67
2021/08/11 09:18:18;;;;;;;9.05;5.63;;;21.60;99.90;;;;;;5092473;28;20047;-67
2021/08/11 09:20:47;;;;;;;6.63;5.15;;;21.60;99.90;;;;;;5093323;28;20051;-67
2021/08/11 09:23:15;;;;;;;10.02;5.05;;;21.60;99.90;;;;;;5097006;27;20044;-67
2021/08/11 09:25:59;;;;;;;11.63;6.03;;;21.50;99.90;;;;;;5095887;28;20043;-67
2021/08/11 09:28:26;;;;;;;9.82;5.78;;;21.60;99.90;;;;;;5095191;28;20119;-67
2021/08/11 09:30:52;;;;;;;10.02;5.00;;;21.60;99.90;;;;;;5092707;28;20044;-67
2021/08/11 09:33:23;;;;;;;7.13;4.80;;;21.70;99.90;;;;;;5100074;27;20031;-67
2021/08/11 09:35:49;;;;;;;10.50;5.47;;;21.70;99.90;;;;;;5090661;28;20054;-67
2021/08/11 09:38:15;;;;;;;8.65;4.53;;;21.70;99.90;;;;;;5095509;27;20047;-67
2021/08/11 09:40:42;;;;;;;12.18;4.43;;;21.60;99.90;;;;;;5095067;28;20115;-67
2021/08/11 09:43:10;;;;;;;9.60;4.80;;;21.70;99.90;;;;;;5093489;28;21651;-67
2021/08/11 09:45:47;;;;;;;8.77;5.30;;;21.80;99.90;;;;;;5095072;28;20044;-67
2021/08/11 09:48:15;;;;;;;9.88;5.28;;;22.00;99.90;;;;;;5094159;28;22021;-67
2021/08/11 09:50:55;;;;;;;9.23;6.43;;;22.20;99.90;;;;;;5093136;28;20135;-67
2021/08/11 09:53:25;;;;;;;6.85;5.28;;;22.50;99.90;;;;;;5093323;28;20810;-67
2021/08/11 09:56:06;;;;;;;8.18;4.68;;;22.70;99.90;;;;;;5095686;28;20049;-67
2021/08/11 09:58:34;;;;;;;4.72;3.92;;;23.00;99.90;;;;;;5092940;28;20494;-67
2021/08/11 10:01:00;;;;;;;6.60;4.45;;;23.20;99.90;;;;;;5095219;28;20123;-67
2021/08/11 10:03:25;;;;;;;6.80;4.50;;;23.30;99.90;;;;;;5095416;28;20040;-67
2021/08/11 10:05:52;;;;;;;10.80;4.57;;;23.50;99.90;;;;;;5094896;28;20056;-67
2021/08/11 10:08:29;;;;;;;5.35;4.18;;;23.60;99.90;;;;;;5094937;28;20058;-67
2021/08/11 10:10:55;;;;;;;6.10;4.53;;;23.50;99.50;;;;;;5125167;27;20117;-67
2021/08/11 10:13:22;;;;;;;6.72;4.43;;;23.50;99.90;;;;;;5097844;27;20036;-67
2021/08/11 10:15:49;;;;;;;7.30;4.50;;;23.60;99.90;;;;;;5100426;27;20203;-67
2021/08/11 10:18:21;;;;;;;5.40;3.30;;;23.70;99.90;;;;;;5093669;28;20040;-67
2021/08/11 10:20:49;;;;;;;7.57;3.50;;;23.70;99.30;;;;;;5098545;28;20366;-67
2021/08/11 10:23:17;;;;;;;7.65;3.63;;;23.90;99.50;;;;;;5100387;28;20040;-67
2021/08/11 10:25:43;;;;;;;7.20;3.20;;;24.00;98.00;;;;;;5097488;28;20043;-67
2021/08/11 10:28:09;;;;;;;9.45;3.72;;;24.20;99.90;;;;;;5099624;27;20036;-67
2021/08/11 10:30:36;;;;;;;7.85;3.88;;;24.20;99.90;;;;;;5096747;27;20132;-67
2021/08/11 10:33:03;;;;;;;6.35;3.63;;;24.10;99.90;;;;;;5094803;28;20036;-67
2021/08/11 10:35:30;;;;;;;7.95;3.40;;;24.10;98.20;;;;;;5098742;27;20043;-67
2021/08/11 10:37:58;;;;;;;4.88;2.97;;;24.20;99.40;;;;;;5099492;28;20044;-67
2021/08/11 10:40:24;;;;;;;8.02;3.60;;;24.20;98.80;;;;;;5099329;28;20040;-67
2021/08/11 10:42:55;;;;;;;10.27;3.78;;;24.30;99.90;;;;;;5100364;28;20055;-67
2021/08/11 10:45:25;;;;;;;3.78;2.95;;;24.20;98.30;;;;;;5092883;27;20042;-67
2021/08/11 10:47:51;;;;;;;6.35;3.08;;;24.20;99.10;;;;;;5095951;27;20103;-67
2021/08/11 10:50:18;;;;;;;5.95;3.15;;;24.30;98.80;;;;;;5095132;28;20535;-67
2021/08/11 10:52:44;;;;;;;4.20;2.40;;;24.50;98.10;;;;;;5096393;28;20031;-67
2021/08/11 10:55:10;;;;;;;7.20;2.20;;;24.70;98.30;;;;;;5097680;27;20143;-67
2021/08/11 10:57:36;;;;;;;10.23;3.60;;;24.90;96.90;;;;;;5095885;28;20148;-67
2021/08/11 11:00:20;;;;;;;7.13;2.92;;;25.00;96.50;;;;;;5093375;28;20490;-67
2021/08/11 11:02:49;;;;;;;5.63;2.90;;;25.20;98.80;;;;;;5096374;28;20501;-68
2021/08/11 11:05:21;;;;;;;6.85;3.75;;;25.40;98.10;;;;;;5099105;27;20043;-68
2021/08/11 11:08:12;;;;;;;6.68;3.80;;;25.50;96.50;;;;;;5097372;28;20493;-68
2021/08/11 11:10:41;;;;;;;6.32;3.42;;;25.50;95.40;;;;;;5095753;27;20043;-68
2021/08/11 11:13:26;;;;;;;8.48;3.35;;;25.40;95.40;;;;;;5095452;28;20067;-67
2021/08/11 11:15:59;;;;;;;7.63;2.67;;;25.30;95.50;;;;;;5098881;27;20028;-67
2021/08/11 11:18:24;;;;;;;5.53;3.05;;;25.20;97.50;;;;;;5097857;28;20309;-67
2021/08/11 11:20:56;;;;;;;4.40;2.20;;;25.20;96.90;;;;;;5098855;27;20028;-67
2021/08/11 11:23:42;;;;;;;4.38;2.80;;;25.30;93.90;;;;;;5094249;27;20036;-68
2021/08/11 11:26:15;;;;;;;4.10;2.63;;;25.40;93.00;;;;;;5098125;27;20078;-68
2021/08/11 11:29:06;;;;;;;3.83;2.35;;;25.40;95.60;;;;;;5093548;28;20861;-68
2021/08/11 11:31:34;;;;;;;7.05;2.53;;;25.50;95.40;;;;;;5095674;28;20096;-67
2021/08/11 11:34:18;;;;;;;3.55;1.85;;;25.50;96.20;;;;;;5091954;27;20036;-67
2021/08/11 11:37:04;;;;;;;3.53;1.85;;;25.40;94.80;;;;;;5095825;28;20040;-67
2021/08/11 11:39:53;;;;;;;4.22;2.08;;;25.40;95.10;;;;;;5090654;27;20056;-67
2021/08/11 11:42:29;;;;;;;4.25;2.08;;;25.50;95.50;;;;;;5095165;28;20051;-68
2021/08/11 11:44:57;;;;;;;2.25;1.77;;;25.50;91.80;;;;;;5096447;27;20052;-67
2021/08/11 11:47:38;;;;;;;3.42;1.77;;;25.50;94.70;;;;;;5097826;28;20787;-67
2021/08/11 11:50:22;;;;;;;4.03;2.20;;;25.70;91.80;;;;;;5096062;27;20035;-67
2021/08/11 11:52:52;;;;;;;3.47;1.85;;;25.70;94.60;;;;;;5096439;28;20050;-67
2021/08/11 11:55:34;;;;;;;3.65;2.03;;;25.80;92.20;;;;;;5126427;27;20032;-67
2021/08/11 11:58:05;;;;;;;4.40;1.95;;;25.80;93.40;;;;;;5095684;28;20043;-67
2021/08/11 12:00:31;;;;;;;3.42;2.13;;;25.80;93.00;;;;;;5093190;28;20044;-67
2021/08/11 12:02:56;;;;;;;3.00;1.63;;;25.80;92.40;;;;;;5096688;28;20058;-67
2021/08/11 12:05:23;;;;;;;2.35;1.55;;;25.80;92.40;;;;;;5093692;28;20440;-68
2021/08/11 12:07:49;;;;;;;2.13;1.58;;;25.90;93.40;;;;;;5093037;28;20031;-68
2021/08/11 12:10:28;;;;;;;2.60;1.67;;;26.00;92.30;;;;;;5092589;27;20090;-68
2021/08/11 12:13:01;;;;;;;4.10;1.65;;;26.10;88.70;;;;;;5098703;28;20157;-67
2021/08/11 12:15:29;;;;;;;6.45;2.00;;;26.10;92.20;;;;;;5096795;28;20043;-68
2021/08/11 12:17:59;;;;;;;3.65;2.03;;;26.10;92.30;;;;;;5096793;28;20043;-68
2021/08/11 12:20:36;;;;;;;3.92;2.10;;;26.20;89.00;;;;;;5094753;28;20032;-68
2021/08/11 12:23:22;;;;;;;3.13;2.45;;;26.20;91.20;;;;;;5094416;27;20414;-68
2021/08/11 12:25:51;;;;;;;3.20;1.77;;;26.20;88.50;;;;;;5097090;28;20113;-68
2021/08/11 12:28:22;;;;;;;3.58;1.73;;;26.20;90.90;;;;;;5095175;28;20552;-68
2021/08/11 12:31:01;;;;;;;4.43;1.98;;;26.30;92.20;;;;;;5094309;28;20035;-68
2021/08/11 12:33:29;;;;;;;4.18;2.00;;;26.30;91.60;;;;;;5094428;28;20046;-68
2021/08/11 12:35:56;;;;;;;4.45;1.90;;;26.40;92.50;;;;;;5095941;27;20391;-68
2021/08/11 12:38:30;;;;;;;4.20;2.30;;;26.30;93.80;;;;;;5094763;28;20063;-68
2021/08/11 12:40:56;;;;;;;2.63;1.90;;;26.10;93.80;;;;;;5094274;28;20557;-68
2021/08/11 12:43:34;;;;;;;2.80;1.73;;;26.10;94.80;;;;;;5094179;28;20089;-68
2021/08/11 12:46:02;;;;;;;4.50;2.08;;;26.00;93.50;;;;;;5093523;28;20394;-68
2021/08/11 12:48:30;;;;;;;2.55;1.55;;;26.10;91.90;;;;;;5094566;28;20036;-68